Time;durP1;ratioP1;P1;durP2;ratioP2;P2;SDS_P1;SDS_P2;PMS_P1;PMS_P2;Temp;Humidity;BMP_temperature;BMP_pressure;BME280_temperature;BME280_humidity;BME280_pressure;Samples;Min_cycle;Max_cycle;Signal;HPM_P1;HPM_P2
2023/02/10 00:02:23;;;;;;;10.05;7.35;;;-2.00;99.90;;;;;;7377933;19;20399;-81
2023/02/10 00:04:48;;;;;;;9.73;7.30;;;-2.10;99.90;;;;;;7378506;19;20333;-78
2023/02/10 00:07:14;;;;;;;10.93;7.73;;;-2.10;99.90;;;;;;7379544;19;20324;-82
2023/02/10 00:09:39;;;;;;;11.30;7.63;;;-2.10;99.90;;;;;;7380744;19;20352;-82
2023/02/10 00:12:07;;;;;;;9.93;7.28;;;-2.10;99.90;;;;;;7379579;19;20333;-79
2023/02/10 00:14:33;;;;;;;10.17;7.33;;;-2.10;99.90;;;;;;7385856;19;21200;-79
2023/02/10 00:16:59;;;;;;;10.90;7.33;;;-2.10;99.90;;;;;;7386831;19;20347;-79
2023/02/10 00:19:25;;;;;;;8.50;7.47;;;-2.10;99.90;;;;;;7387108;19;20310;-79
2023/02/10 00:21:51;;;;;;;10.18;7.47;;;-2.10;99.90;;;;;;7386244;19;20321;-80
2023/02/10 00:24:18;;;;;;;10.13;7.57;;;-2.10;99.90;;;;;;7386664;19;20348;-82
2023/02/10 00:26:43;;;;;;;10.90;7.50;;;-2.20;99.90;;;;;;7387983;19;20323;-81
2023/02/10 00:29:09;;;;;;;8.83;6.63;;;-2.20;99.90;;;;;;7387476;19;20977;-77
2023/02/10 00:31:35;;;;;;;10.43;7.07;;;-2.20;99.90;;;;;;7386153;19;20378;-80
2023/02/10 00:34:01;;;;;;;11.50;7.28;;;-2.20;99.90;;;;;;7385484;19;20353;-78
2023/02/10 00:36:27;;;;;;;10.75;7.10;;;-2.20;99.90;;;;;;7387162;19;20328;-79
2023/02/10 00:38:52;;;;;;;10.40;7.22;;;-2.20;99.90;;;;;;7388237;19;20970;-79
2023/02/10 00:41:19;;;;;;;10.17;7.27;;;-2.20;99.90;;;;;;7386022;19;20324;-78
2023/02/10 00:43:45;;;;;;;11.27;7.40;;;-2.20;99.90;;;;;;7385124;19;20850;-80
2023/02/10 00:46:11;;;;;;;11.07;7.32;;;-2.20;99.90;;;;;;7387720;19;20332;-79
2023/02/10 00:48:37;;;;;;;10.35;7.32;;;-2.10;99.90;;;;;;7388064;19;20952;-80
2023/02/10 00:51:03;;;;;;;11.00;7.28;;;-2.10;99.90;;;;;;7385448;19;20355;-80
2023/02/10 00:53:29;;;;;;;11.68;6.90;;;-2.00;99.90;;;;;;7385011;19;20309;-80
2023/02/10 00:55:54;;;;;;;10.60;7.30;;;-2.00;99.90;;;;;;7386950;19;20332;-78
2023/02/10 00:58:20;;;;;;;13.18;7.18;;;-1.90;99.90;;;;;;7386258;19;20309;-80
2023/02/10 01:00:46;;;;;;;10.03;6.90;;;-1.80;99.90;;;;;;7384550;19;20431;-78
2023/02/10 01:03:11;;;;;;;9.52;7.35;;;-1.90;99.90;;;;;;7374022;19;20315;-81
2023/02/10 01:05:37;;;;;;;8.88;6.80;;;-1.80;99.90;;;;;;7385532;19;20343;-80
2023/02/10 01:08:03;;;;;;;12.33;7.13;;;-1.70;99.90;;;;;;7386906;19;20312;-85
2023/02/10 01:10:28;;;;;;;11.75;7.40;;;-1.70;99.90;;;;;;7386832;19;20392;-81
2023/02/10 01:12:54;;;;;;;12.13;7.53;;;-1.70;99.90;;;;;;7385271;19;20316;-78
2023/02/10 01:15:21;;;;;;;9.43;7.43;;;-1.60;99.90;;;;;;7384213;19;20327;-83
2023/02/10 01:17:47;;;;;;;9.45;6.63;;;-1.60;99.90;;;;;;7374691;19;20332;-83
2023/02/10 01:20:13;;;;;;;9.53;7.70;;;-1.50;99.90;;;;;;7384607;19;20313;-79
2023/02/10 01:22:38;;;;;;;9.07;6.75;;;-1.50;99.90;;;;;;7384657;19;20868;-80
2023/02/10 01:25:04;;;;;;;10.27;6.97;;;-1.40;99.90;;;;;;7380670;19;20401;-80
2023/02/10 01:27:29;;;;;;;9.55;7.20;;;-1.40;99.90;;;;;;7386582;19;20854;-80
2023/02/10 01:29:55;;;;;;;13.07;7.40;;;-1.30;99.90;;;;;;7385604;19;20300;-82
2023/02/10 01:32:21;;;;;;;9.70;6.60;;;-1.20;99.90;;;;;;7384932;19;20313;-80
2023/02/10 01:34:46;;;;;;;10.63;6.70;;;-1.20;99.90;;;;;;7385057;19;20388;-80
2023/02/10 01:37:12;;;;;;;10.02;6.82;;;-1.20;99.90;;;;;;7385811;19;20312;-80
2023/02/10 01:39:37;;;;;;;9.73;6.83;;;-1.20;99.90;;;;;;7390400;19;20381;-82
2023/02/10 01:42:03;;;;;;;13.30;6.82;;;-1.10;99.90;;;;;;7388810;19;20324;-82
2023/02/10 01:44:29;;;;;;;11.30;7.40;;;-1.10;99.90;;;;;;7391086;19;20356;-82
2023/02/10 01:46:55;;;;;;;9.97;6.70;;;-1.00;99.90;;;;;;7384967;19;20305;-79
2023/02/10 01:49:26;;;;;;;13.80;7.65;;;-1.00;99.90;;;;;;7387262;19;20703;-79
2023/02/10 01:51:59;;;;;;;9.20;7.20;;;-0.90;99.90;;;;;;7383247;19;20413;-83
2023/02/10 01:54:33;;;;;;;9.82;7.00;;;-0.90;99.90;;;;;;7281579;19;2004331;-80
2023/02/10 01:56:59;;;;;;;10.00;7.00;;;-0.90;99.90;;;;;;7385262;19;20321;-80
2023/02/10 01:59:25;;;;;;;9.97;6.93;;;-0.90;99.90;;;;;;7385508;19;20300;-85
2023/02/10 02:01:51;;;;;;;9.38;7.20;;;-0.80;99.90;;;;;;7383297;19;20317;-82
2023/02/10 02:04:17;;;;;;;8.33;6.53;;;-0.80;99.90;;;;;;7384690;19;20681;-80
2023/02/10 02:06:43;;;;;;;7.80;6.63;;;-0.70;99.90;;;;;;7394271;19;20373;-83
2023/02/10 02:09:09;;;;;;;11.02;7.03;;;-0.70;99.90;;;;;;7391335;19;20345;-83
2023/02/10 02:11:57;;;;;;;10.68;7.43;;;-0.70;99.90;;;;;;7384598;19;20382;-79
2023/02/10 02:14:43;;;;;;;11.27;7.30;;;-0.70;99.90;;;;;;7283461;19;2004560;-80
2023/02/10 02:17:14;;;;;;;12.60;7.47;;;-0.70;99.90;;;;;;7385553;19;20325;-78
2023/02/10 02:19:52;;;;;;;10.98;7.35;;;-0.70;99.90;;;;;;7386564;19;20356;-77
2023/02/10 02:22:40;;;;;;;9.63;7.20;;;-0.70;99.90;;;;;;7384538;19;20301;-81
2023/02/10 02:25:18;;;;;;;9.35;6.35;;;-0.70;99.90;;;;;;7281273;19;2004627;-78
2023/02/10 02:28:23;;;;;;;10.18;7.38;;;-0.70;99.90;;;;;;7380615;19;20311;-80
2023/02/10 02:31:24;;;;;;;10.57;7.60;;;-0.70;99.90;;;;;;7279856;19;2016080;-77
2023/02/10 02:33:51;;;;;;;8.40;6.53;;;-0.60;99.90;;;;;;7279183;19;2016390;-80
2023/02/10 02:36:46;;;;;;;10.70;7.40;;;-0.70;99.90;;;;;;7381515;19;20344;-79
2023/02/10 02:39:12;;;;;;;11.38;6.80;;;-0.70;99.90;;;;;;7279779;19;2017427;-79
2023/02/10 02:41:38;;;;;;;11.87;7.80;;;-0.80;99.90;;;;;;7376939;19;20358;-81
2023/02/10 02:44:04;;;;;;;13.65;7.65;;;-0.70;99.90;;;;;;7378817;19;20319;-82
2023/02/10 02:46:35;;;;;;;8.98;7.35;;;-0.80;99.90;;;;;;7382788;19;20723;-80
2023/02/10 02:49:31;;;;;;;12.40;7.82;;;-0.80;99.90;;;;;;7385994;19;20322;-82
2023/02/10 02:52:17;;;;;;;9.95;7.63;;;-0.80;99.90;;;;;;7272352;19;2004360;-90
2023/02/10 02:55:00;;;;;;;12.32;8.68;;;-0.80;99.90;;;;;;7414790;19;20321;-88
2023/02/10 02:57:34;;;;;;;10.95;7.78;;;-0.80;99.90;;;;;;7310476;19;2004163;-90
2023/02/10 03:00:15;;;;;;;10.25;7.47;;;-0.80;99.90;;;;;;7410929;19;20321;-84
2023/02/10 03:02:41;;;;;;;13.07;8.35;;;-0.80;99.90;;;;;;7411180;19;20312;-86
2023/02/10 03:05:08;;;;;;;12.40;8.60;;;-0.80;99.90;;;;;;7410975;19;20332;-87
2023/02/10 03:07:34;;;;;;;11.60;8.00;;;-0.80;99.90;;;;;;7413115;19;20684;-87
2023/02/10 03:09:59;;;;;;;11.33;7.93;;;-0.80;99.90;;;;;;7413591;19;20308;-90
2023/02/10 03:12:25;;;;;;;11.20;7.93;;;-0.80;99.90;;;;;;7415439;19;20376;-89
2023/02/10 03:14:51;;;;;;;10.85;7.95;;;-0.80;99.90;;;;;;7415093;19;20312;-88
2023/02/10 03:17:16;;;;;;;12.63;8.80;;;-0.80;99.90;;;;;;7413741;19;20300;-87
2023/02/10 03:19:42;;;;;;;15.13;9.13;;;-0.80;99.90;;;;;;7414431;19;20325;-89
2023/02/10 03:22:07;;;;;;;11.97;7.53;;;-0.80;99.90;;;;;;7413579;19;20316;-87
2023/02/10 03:24:33;;;;;;;10.70;7.25;;;-0.80;99.90;;;;;;7411440;19;20305;-86
2023/02/10 03:26:58;;;;;;;10.50;8.47;;;-0.70;99.90;;;;;;7412710;19;20319;-88
2023/02/10 03:29:24;;;;;;;10.90;7.43;;;-0.70;99.90;;;;;;7406140;19;20301;-86
2023/02/10 03:31:50;;;;;;;12.07;8.77;;;-0.70;99.90;;;;;;7412597;19;20316;-90
2023/02/10 03:34:16;;;;;;;9.75;7.90;;;-0.70;99.90;;;;;;7411761;19;20296;-87
2023/02/10 03:36:41;;;;;;;12.93;8.77;;;-0.70;99.90;;;;;;7412712;19;20321;-88
2023/02/10 03:39:07;;;;;;;10.53;7.63;;;-0.70;99.90;;;;;;7411955;19;20350;-90
2023/02/10 03:41:32;;;;;;;12.05;8.52;;;-0.70;99.90;;;;;;7412676;19;20313;-90
2023/02/10 03:43:58;;;;;;;11.77;7.60;;;-0.80;99.90;;;;;;7410868;19;20297;-88
2023/02/10 03:46:23;;;;;;;11.75;8.07;;;-0.80;99.90;;;;;;7412133;19;20337;-88
2023/02/10 03:48:49;;;;;;;11.20;8.27;;;-0.90;99.90;;;;;;7419728;19;20315;-88
2023/02/10 03:51:15;;;;;;;13.03;8.57;;;-0.90;99.90;;;;;;7418110;19;20284;-87
2023/02/10 03:53:40;;;;;;;13.88;7.78;;;-0.90;99.90;;;;;;7418335;19;20316;-93
2023/02/10 03:56:06;;;;;;;10.63;8.00;;;-0.90;99.90;;;;;;7415722;19;20323;-89
2023/02/10 03:58:34;;;;;;;11.07;8.15;;;-1.00;99.90;;;;;;7411845;19;20317;-90
2023/02/10 04:00:59;;;;;;;11.65;8.57;;;-1.10;99.90;;;;;;7409033;19;20312;-85
2023/02/10 04:03:25;;;;;;;13.47;8.60;;;-1.00;99.90;;;;;;7411049;19;20301;-86
2023/02/10 04:05:51;;;;;;;13.70;9.43;;;-1.10;99.90;;;;;;7411753;19;20320;-86
2023/02/10 04:08:16;;;;;;;11.80;8.63;;;-1.10;99.90;;;;;;7411778;19;20307;-87
2023/02/10 04:10:42;;;;;;;12.37;8.73;;;-1.10;99.90;;;;;;7410793;19;20308;-82
2023/02/10 04:13:08;;;;;;;13.15;8.75;;;-1.10;99.90;;;;;;7412344;19;20304;-84
2023/02/10 04:15:34;;;;;;;15.57;9.30;;;-1.10;99.90;;;;;;7411917;19;20329;-82
2023/02/10 04:18:00;;;;;;;12.40;8.82;;;-1.20;99.90;;;;;;7413027;19;20309;-93
2023/02/10 04:20:25;;;;;;;16.30;9.65;;;-1.10;99.90;;;;;;7410934;19;20360;-85
2023/02/10 04:22:51;;;;;;;11.63;9.20;;;-1.10;99.90;;;;;;7413024;19;20294;-90
2023/02/10 04:25:17;;;;;;;13.90;9.10;;;-1.20;99.90;;;;;;7411005;19;20333;-87
2023/02/10 04:27:42;;;;;;;13.27;9.32;;;-1.20;99.90;;;;;;7412221;19;20389;-86
2023/02/10 04:30:09;;;;;;;13.30;8.30;;;-1.20;99.90;;;;;;7412104;19;20341;-86
2023/02/10 04:32:34;;;;;;;13.10;9.20;;;-1.10;99.90;;;;;;7410525;19;20320;-85
2023/02/10 04:35:00;;;;;;;13.60;9.27;;;-1.20;99.90;;;;;;7410406;19;20328;-84
2023/02/10 04:37:26;;;;;;;15.68;9.60;;;-1.20;99.90;;;;;;7410375;19;20312;-87
2023/02/10 04:39:51;;;;;;;13.67;9.43;;;-1.20;99.90;;;;;;7411207;19;20325;-90
2023/02/10 04:42:17;;;;;;;14.57;9.98;;;-1.20;99.90;;;;;;7408286;19;20308;-82
2023/02/10 04:44:43;;;;;;;15.27;10.10;;;-1.20;99.90;;;;;;7408325;19;20336;-85
2023/02/10 04:47:08;;;;;;;13.27;9.47;;;-1.20;99.90;;;;;;7410735;19;20321;-84
2023/02/10 04:49:34;;;;;;;13.60;9.43;;;-1.10;99.90;;;;;;7401325;19;20344;-83
2023/02/10 04:52:01;;;;;;;13.33;9.30;;;-1.10;99.90;;;;;;7396951;19;20344;-80
2023/02/10 04:54:26;;;;;;;14.82;9.27;;;-1.00;99.90;;;;;;7396378;19;20328;-82
2023/02/10 04:56:52;;;;;;;13.60;9.90;;;-1.10;99.90;;;;;;7396903;19;20808;-81
2023/02/10 04:59:17;;;;;;;13.43;9.82;;;-1.00;99.90;;;;;;7393618;19;20352;-82
2023/02/10 05:01:43;;;;;;;12.80;9.82;;;-1.00;99.90;;;;;;7402163;19;20339;-89
2023/02/10 05:04:10;;;;;;;15.23;10.20;;;-0.90;99.90;;;;;;7408489;19;20305;-87
2023/02/10 05:06:36;;;;;;;14.30;10.15;;;-0.90;99.90;;;;;;7410355;19;20312;-84
2023/02/10 05:09:02;;;;;;;14.63;10.17;;;-0.80;99.90;;;;;;7406657;19;20325;-86
2023/02/10 05:11:28;;;;;;;15.20;10.27;;;-0.90;99.90;;;;;;7406800;19;20325;-86
2023/02/10 05:13:53;;;;;;;16.15;10.57;;;-0.90;99.90;;;;;;7406395;19;20378;-86
2023/02/10 05:16:19;;;;;;;13.80;10.50;;;-0.90;99.90;;;;;;7406025;19;20679;-86
2023/02/10 05:18:44;;;;;;;14.13;9.52;;;-0.90;99.90;;;;;;7406549;19;20316;-85
2023/02/10 05:21:11;;;;;;;16.40;10.70;;;-0.80;99.90;;;;;;7404296;19;20739;-81
2023/02/10 05:23:37;;;;;;;15.07;9.80;;;-0.80;99.90;;;;;;7405062;19;20756;-87
2023/02/10 05:26:02;;;;;;;15.47;10.27;;;-0.80;99.90;;;;;;7404196;19;20324;-87
2023/02/10 05:28:28;;;;;;;13.43;9.57;;;-0.90;99.90;;;;;;7403746;19;20334;-81
2023/02/10 05:30:54;;;;;;;11.93;9.15;;;-0.90;99.90;;;;;;7403210;19;20870;-81
2023/02/10 05:33:19;;;;;;;15.00;9.70;;;-0.90;99.90;;;;;;7397235;19;20333;-90
2023/02/10 05:35:45;;;;;;;13.40;10.23;;;-1.00;99.90;;;;;;7401459;19;20320;-86
2023/02/10 05:38:11;;;;;;;16.10;10.45;;;-1.00;99.90;;;;;;7402862;19;20300;-88
2023/02/10 05:40:36;;;;;;;14.50;9.87;;;-1.10;99.90;;;;;;7404616;19;20316;-87
2023/02/10 05:43:02;;;;;;;14.40;10.05;;;-1.10;99.90;;;;;;7405640;19;20333;-85
2023/02/10 05:45:28;;;;;;;15.70;10.07;;;-1.10;99.90;;;;;;7404015;19;20315;-91
2023/02/10 05:47:54;;;;;;;15.67;10.27;;;-1.20;99.90;;;;;;7404952;19;20317;-90
2023/02/10 05:50:19;;;;;;;14.83;10.10;;;-1.20;99.90;;;;;;7405221;19;21048;-88
2023/02/10 05:52:45;;;;;;;13.52;9.85;;;-1.20;99.90;;;;;;7404549;19;20312;-89
2023/02/10 05:55:12;;;;;;;14.53;9.70;;;-1.30;99.90;;;;;;7404115;19;20324;-89
2023/02/10 05:57:38;;;;;;;15.80;10.45;;;-1.30;99.90;;;;;;7403648;19;20332;-87
2023/02/10 06:00:05;;;;;;;16.07;9.90;;;-1.30;99.90;;;;;;7405993;19;20319;-88
2023/02/10 06:02:37;;;;;;;15.30;9.82;;;-1.30;99.90;;;;;;7405264;19;20339;-88
2023/02/10 06:05:03;;;;;;;15.40;10.23;;;-1.30;99.90;;;;;;7404483;19;20317;-92
2023/02/10 06:07:29;;;;;;;12.90;9.43;;;-1.40;99.90;;;;;;7406545;19;20313;-87
2023/02/10 06:09:54;;;;;;;17.98;10.80;;;-1.40;99.90;;;;;;7403580;19;20311;-92
2023/02/10 06:12:20;;;;;;;13.97;9.70;;;-1.40;99.90;;;;;;7406779;19;20331;-88
2023/02/10 06:14:45;;;;;;;15.90;10.33;;;-1.40;99.90;;;;;;7404521;19;20825;-88
2023/02/10 06:17:11;;;;;;;18.23;10.73;;;-1.50;99.90;;;;;;7404561;19;20333;-87
2023/02/10 06:19:37;;;;;;;14.33;9.77;;;-1.50;99.90;;;;;;7403862;19;21236;-91
2023/02/10 06:22:03;;;;;;;14.32;10.20;;;-1.40;99.90;;;;;;7407505;19;20316;-85
2023/02/10 06:24:29;;;;;;;13.25;9.73;;;-1.40;99.90;;;;;;7408028;19;20341;-85
2023/02/10 06:26:54;;;;;;;15.88;10.25;;;-1.30;99.90;;;;;;7410198;19;20328;-90
2023/02/10 06:29:20;;;;;;;17.57;11.83;;;-1.40;99.90;;;;;;7411596;19;20367;-84
2023/02/10 06:31:46;;;;;;;17.92;12.40;;;-1.30;99.90;;;;;;7409180;19;20332;-85
2023/02/10 06:34:11;;;;;;;19.00;12.73;;;-1.40;99.90;;;;;;7406396;19;20323;-83
2023/02/10 06:36:37;;;;;;;23.07;14.07;;;-1.40;99.90;;;;;;7409697;19;20317;-83
2023/02/10 06:39:03;;;;;;;21.25;13.77;;;-1.40;99.90;;;;;;7413460;19;20388;-88
2023/02/10 06:41:28;;;;;;;21.25;12.77;;;-1.40;99.90;;;;;;7411313;19;20317;-87
2023/02/10 06:43:54;;;;;;;20.13;12.90;;;-1.40;99.90;;;;;;7408562;19;20329;-82
2023/02/10 06:46:19;;;;;;;18.77;11.07;;;-1.40;99.90;;;;;;7409779;19;20359;-86
2023/02/10 06:48:45;;;;;;;15.23;10.10;;;-1.30;99.90;;;;;;7410217;19;20307;-88
2023/02/10 06:51:11;;;;;;;14.57;10.18;;;-1.40;99.90;;;;;;7407862;19;20347;-90
2023/02/10 06:53:36;;;;;;;18.63;11.13;;;-1.40;99.90;;;;;;7407523;19;20309;-89
2023/02/10 06:56:02;;;;;;;15.88;10.57;;;-1.40;99.90;;;;;;7407029;19;20335;-88
2023/02/10 06:58:27;;;;;;;15.00;11.18;;;-1.40;99.90;;;;;;7407747;19;20335;-90
2023/02/10 07:00:53;;;;;;;14.37;10.40;;;-1.40;99.90;;;;;;7406755;19;20789;-90
2023/02/10 07:03:19;;;;;;;16.98;11.30;;;-1.40;99.90;;;;;;7408276;19;20319;-89
2023/02/10 07:05:44;;;;;;;14.17;9.80;;;-1.40;99.90;;;;;;7406577;19;20321;-84
2023/02/10 07:08:10;;;;;;;16.02;10.60;;;-1.40;99.90;;;;;;7405217;19;20341;-91
2023/02/10 07:10:35;;;;;;;15.40;10.87;;;-1.40;99.90;;;;;;7403468;19;20315;-85
2023/02/10 07:13:01;;;;;;;16.75;11.27;;;-1.30;99.90;;;;;;7405330;19;20324;-85
2023/02/10 07:15:27;;;;;;;17.02;11.10;;;-1.40;99.90;;;;;;7404224;19;20307;-86
2023/02/10 07:17:52;;;;;;;16.27;11.17;;;-1.40;99.90;;;;;;7406727;19;20305;-89
2023/02/10 07:20:18;;;;;;;15.52;10.65;;;-1.30;99.90;;;;;;7406135;19;20333;-89
2023/02/10 07:22:44;;;;;;;13.15;9.48;;;-1.30;99.90;;;;;;7402651;19;20328;-89
2023/02/10 07:25:09;;;;;;;15.27;10.40;;;-1.20;99.90;;;;;;7405603;19;20304;-91
2023/02/10 07:27:35;;;;;;;13.13;9.68;;;-1.10;99.90;;;;;;7404948;19;20363;-90
2023/02/10 07:30:00;;;;;;;15.40;10.87;;;-0.90;99.90;;;;;;7404538;19;20349;-89
2023/02/10 07:32:26;;;;;;;15.70;10.68;;;-1.00;99.90;;;;;;7410280;19;20309;-90
2023/02/10 07:34:52;;;;;;;15.97;11.57;;;-1.00;99.90;;;;;;7412003;19;20328;-89
2023/02/10 07:37:17;;;;;;;14.80;10.57;;;-0.90;99.90;;;;;;7409770;19;20368;-93
2023/02/10 07:39:43;;;;;;;18.63;11.43;;;-0.90;99.90;;;;;;7405786;19;20332;-93
2023/02/10 07:42:08;;;;;;;17.50;11.33;;;-0.80;99.90;;;;;;7403232;19;20328;-90
2023/02/10 07:44:53;;;;;;;17.33;11.73;;;-0.70;99.90;;;;;;7397839;19;20302;-86
2023/02/10 07:47:19;;;;;;;16.83;11.70;;;-0.60;99.90;;;;;;7398019;19;20300;-89
2023/02/10 07:49:45;;;;;;;15.47;11.47;;;-0.50;99.90;;;;;;7395362;19;20324;-89
2023/02/10 07:52:10;;;;;;;20.73;13.30;;;-0.50;99.90;;;;;;7393441;19;20316;-85
2023/02/10 07:54:36;;;;;;;19.40;12.80;;;-0.50;99.90;;;;;;7399570;19;20320;-86
2023/02/10 07:57:02;;;;;;;18.15;12.65;;;-0.40;99.90;;;;;;7401945;19;21066;-85
2023/02/10 07:59:30;;;;;;;18.23;12.05;;;-0.30;99.90;;;;;;7399029;19;20337;-86
2023/02/10 08:01:56;;;;;;;19.40;13.73;;;-0.30;99.90;;;;;;7382850;19;20320;-89
2023/02/10 08:04:27;;;;;;;18.27;11.95;;;-0.30;99.90;;;;;;7385951;19;20313;-82
2023/02/10 08:06:55;;;;;;;17.98;12.10;;;-0.10;99.90;;;;;;7390154;19;20317;-86
2023/02/10 08:09:20;;;;;;;17.75;12.32;;;-0.20;99.90;;;;;;7383623;19;21205;-76
2023/02/10 08:11:46;;;;;;;20.77;12.37;;;-0.10;99.90;;;;;;7381213;19;20332;-76
2023/02/10 08:14:12;;;;;;;20.88;16.15;;;0.00;99.90;;;;;;7381057;19;20345;-78
2023/02/10 08:16:38;;;;;;;18.17;13.13;;;0.00;99.90;;;;;;7382497;19;20304;-78
2023/02/10 08:19:03;;;;;;;18.40;12.03;;;0.10;99.90;;;;;;7382523;19;20667;-78
2023/02/10 08:21:29;;;;;;;20.17;14.25;;;0.10;99.90;;;;;;7383838;19;20342;-80
2023/02/10 08:23:58;;;;;;;19.55;12.68;;;0.10;99.90;;;;;;7377980;19;20320;-78
2023/02/10 08:26:24;;;;;;;20.30;12.88;;;0.20;99.90;;;;;;7380115;19;20368;-82
2023/02/10 08:28:50;;;;;;;21.20;14.40;;;0.30;99.90;;;;;;7379286;19;20859;-79
2023/02/10 08:31:16;;;;;;;20.50;14.38;;;0.30;99.90;;;;;;7377172;19;20312;-76
2023/02/10 08:33:43;;;;;;;19.03;13.00;;;0.40;99.90;;;;;;7381606;19;20396;-80
2023/02/10 08:36:10;;;;;;;21.98;14.07;;;0.40;99.90;;;;;;7385777;19;20307;-76
2023/02/10 08:38:38;;;;;;;21.38;14.93;;;0.40;99.90;;;;;;7387315;19;20655;-83
2023/02/10 08:41:04;;;;;;;22.57;15.63;;;0.50;99.90;;;;;;7382597;19;20312;-81
2023/02/10 08:43:31;;;;;;;21.45;13.27;;;0.50;99.90;;;;;;7387272;19;20338;-77
2023/02/10 08:45:59;;;;;;;20.98;14.38;;;0.50;99.90;;;;;;7366596;19;20320;-75
2023/02/10 08:48:26;;;;;;;23.60;16.33;;;0.60;99.90;;;;;;7385456;19;20337;-79
2023/02/10 08:50:53;;;;;;;22.23;14.73;;;0.70;99.90;;;;;;7387837;19;20309;-81
2023/02/10 08:53:19;;;;;;;19.98;16.02;;;0.70;99.90;;;;;;7399083;19;20843;-86
2023/02/10 08:56:07;;;;;;;24.67;16.13;;;0.80;99.90;;;;;;7389023;19;20684;-77
2023/02/10 08:58:34;;;;;;;24.60;16.43;;;0.90;99.90;;;;;;7284776;19;2004340;-77
2023/02/10 09:00:59;;;;;;;22.73;15.83;;;1.00;99.90;;;;;;7381866;19;20345;-83
2023/02/10 09:03:26;;;;;;;26.70;16.10;;;1.10;99.90;;;;;;7383042;19;20313;-80
2023/02/10 09:05:52;;;;;;;21.73;15.35;;;1.20;99.90;;;;;;7389685;19;20319;-77
2023/02/10 09:08:18;;;;;;;21.58;15.65;;;1.40;99.90;;;;;;7389411;19;20320;-79
2023/02/10 09:10:45;;;;;;;25.05;15.90;;;1.40;99.90;;;;;;7387814;19;20339;-79
2023/02/10 09:13:12;;;;;;;22.63;15.60;;;1.50;99.90;;;;;;7385802;19;20843;-79
2023/02/10 09:15:41;;;;;;;23.50;15.63;;;1.50;99.90;;;;;;7382669;19;20345;-78
2023/02/10 09:18:07;;;;;;;24.17;16.67;;;1.60;99.90;;;;;;7386423;19;20317;-78
2023/02/10 09:20:34;;;;;;;22.17;15.63;;;1.70;99.90;;;;;;7383689;19;20857;-81
2023/02/10 09:23:21;;;;;;;25.02;15.65;;;1.60;99.90;;;;;;7386243;19;20356;-78
2023/02/10 09:25:56;;;;;;;22.60;16.10;;;1.70;99.90;;;;;;7367251;19;20305;-80
2023/02/10 09:28:27;;;;;;;24.35;16.08;;;1.80;99.90;;;;;;7382784;19;20313;-79
2023/02/10 09:30:52;;;;;;;23.85;15.35;;;1.90;99.90;;;;;;7377880;19;20318;-77
2023/02/10 09:33:18;;;;;;;23.10;14.98;;;2.00;99.90;;;;;;7385485;19;20312;-80
2023/02/10 09:35:44;;;;;;;20.87;15.30;;;2.10;99.90;;;;;;7385906;19;21251;-82
2023/02/10 09:38:11;;;;;;;25.00;15.27;;;2.10;99.90;;;;;;7385477;19;20325;-78
2023/02/10 09:40:59;;;;;;;23.33;16.42;;;2.20;99.90;;;;;;7386037;19;20312;-76
2023/02/10 09:44:01;;;;;;;21.20;15.05;;;2.20;99.90;;;;;;7283552;19;2004246;-89
2023/02/10 09:46:36;;;;;;;22.83;15.40;;;2.20;99.90;;;;;;7282058;19;2004222;-77
2023/02/10 09:49:30;;;;;;;23.88;15.48;;;2.30;99.90;;;;;;7385888;19;20328;-78
2023/02/10 09:52:35;;;;;;;22.73;15.48;;;2.30;99.90;;;;;;7283448;19;2004236;-78
2023/02/10 09:55:01;;;;;;;20.33;15.05;;;2.40;99.90;;;;;;7283241;19;2004317;-78
2023/02/10 09:57:41;;;;;;;21.83;15.23;;;2.50;99.90;;;;;;7386656;19;20668;-77
2023/02/10 10:00:33;;;;;;;21.63;14.48;;;2.50;99.90;;;;;;7385089;19;21273;-77
2023/02/10 10:02:59;;;;;;;18.92;13.85;;;2.60;99.90;;;;;;7281214;19;2004297;-80
2023/02/10 10:06:05;;;;;;;21.57;13.87;;;2.50;99.90;;;;;;7385696;19;20343;-86
2023/02/10 10:08:47;;;;;;;23.50;14.13;;;2.60;99.90;;;;;;7284300;19;2004373;-81
2023/02/10 10:11:51;;;;;;;19.33;12.85;;;2.70;99.90;;;;;;7386894;19;20418;-76
2023/02/10 10:14:22;;;;;;;19.77;13.77;;;2.80;99.90;;;;;;7281211;19;2004480;-78
2023/02/10 10:17:03;;;;;;;20.55;14.13;;;3.00;99.90;;;;;;7386600;19;20347;-83
2023/02/10 10:19:43;;;;;;;19.70;13.82;;;3.00;99.90;;;;;;7282394;19;2004281;-80
2023/02/10 10:22:34;;;;;;;24.77;17.13;;;3.20;99.90;;;;;;7415014;19;20331;-87
2023/02/10 10:25:32;;;;;;;22.55;14.85;;;3.20;99.90;;;;;;7311514;19;2003970;-84
2023/02/10 10:28:42;;;;;;;18.52;13.10;;;3.40;99.90;;;;;;7291810;19;2004205;-88
2023/02/10 10:31:11;;;;;;;22.40;12.60;;;3.50;99.90;;;;;;7299821;19;2004262;-83
2023/02/10 10:33:53;;;;;;;19.13;12.50;;;3.50;99.90;;;;;;7376384;19;20313;-83
2023/02/10 10:36:53;;;;;;;17.85;12.13;;;3.60;99.90;;;;;;7416525;19;20309;-84
2023/02/10 10:39:37;;;;;;;22.00;12.50;;;3.60;99.90;;;;;;7288538;19;2004207;-83
2023/02/10 10:42:25;;;;;;;19.05;12.90;;;3.60;99.90;;;;;;7303201;19;2004069;-87
2023/02/10 10:45:34;;;;;;;21.55;12.07;;;3.60;99.90;;;;;;7415902;19;20308;-85
2023/02/10 11:14:36;;;;;;;16.80;11.88;;;4.10;99.90;;;;;;7375279;19;20307;-87
2023/02/10 11:17:04;;;;;;;17.33;12.30;;;4.20;99.90;;;;;;7409661;19;20309;-87
2023/02/10 11:19:31;;;;;;;21.37;12.13;;;4.20;99.90;;;;;;7393203;19;20317;-88
2023/02/10 11:21:57;;;;;;;17.98;10.68;;;4.20;99.90;;;;;;7414849;19;20329;-89
2023/02/10 11:24:31;;;;;;;17.65;10.68;;;4.30;99.90;;;;;;7418199;19;20324;-91
2023/02/10 11:27:09;;;;;;;16.33;11.15;;;4.30;99.90;;;;;;7311956;19;2004196;-87
2023/02/10 20:56:51;;;;;;;20.60;13.85;;;1.50;99.90;;;;;;7384198;19;20305;-84
2023/02/10 20:59:16;;;;;;;29.00;18.97;;;1.50;99.90;;;;;;7390320;19;20324;-86
2023/02/10 21:01:45;;;;;;;24.30;16.42;;;1.50;99.90;;;;;;7390711;19;20713;-89
2023/02/10 21:04:10;;;;;;;22.42;13.48;;;1.50;99.90;;;;;;7394985;19;20372;-81
2023/02/10 21:06:40;;;;;;;19.30;12.68;;;1.50;99.90;;;;;;7402294;19;20316;-89
2023/02/10 21:09:08;;;;;;;19.63;12.55;;;1.50;99.90;;;;;;7408093;19;20320;-87
2023/02/10 21:11:34;;;;;;;20.80;14.60;;;1.50;99.90;;;;;;7369724;19;20438;-88
2023/02/10 21:14:02;;;;;;;26.95;16.95;;;1.50;99.90;;;;;;7415395;19;20337;-91
2023/02/10 21:16:28;;;;;;;23.75;15.35;;;1.50;99.90;;;;;;7412000;19;20393;-88
2023/02/10 21:18:54;;;;;;;22.08;14.30;;;1.50;99.90;;;;;;7416697;19;20333;-88
2023/02/10 21:21:20;;;;;;;22.35;15.55;;;1.50;99.90;;;;;;7416346;19;20371;-88
2023/02/10 21:23:47;;;;;;;21.90;16.20;;;1.50;99.90;;;;;;7413594;19;20312;-85
2023/02/10 21:26:12;;;;;;;25.65;16.08;;;1.50;99.90;;;;;;7414699;19;20333;-90
2023/02/10 21:28:38;;;;;;;22.48;14.82;;;1.50;99.90;;;;;;7409729;19;20321;-90
2023/02/10 21:31:15;;;;;;;20.77;14.93;;;1.40;99.90;;;;;;7411345;19;20325;-92
2023/02/10 21:33:41;;;;;;;24.73;15.23;;;1.50;99.90;;;;;;7410428;19;20336;-93
2023/02/10 21:36:22;;;;;;;23.03;15.33;;;1.50;99.90;;;;;;7411396;19;20316;-91
2023/02/10 21:38:47;;;;;;;24.85;16.35;;;1.50;99.90;;;;;;7412110;19;21436;-88
2023/02/10 21:43:59;;;;;;;21.67;15.50;;;1.50;99.90;;;;;;7308203;19;2004160;-91
2023/02/10 21:46:25;;;;;;;21.63;15.18;;;1.60;99.90;;;;;;7411265;19;20321;-90
2023/02/10 21:48:54;;;;;;;25.23;16.65;;;1.50;99.90;;;;;;7409580;19;24793;-88
2023/02/10 21:51:22;;;;;;;23.03;15.97;;;1.50;99.90;;;;;;7410058;19;20313;-89
2023/02/10 21:53:47;;;;;;;25.33;17.02;;;1.60;99.90;;;;;;7411723;19;20320;-88
2023/02/10 21:56:13;;;;;;;25.27;16.73;;;1.70;99.90;;;;;;7411712;19;20365;-91
2023/02/10 21:58:39;;;;;;;25.93;17.20;;;1.70;99.90;;;;;;7410400;19;20304;-89
2023/02/10 22:01:11;;;;;;;25.40;16.23;;;1.70;99.90;;;;;;7387590;19;20316;-90
2023/02/10 22:03:37;;;;;;;23.70;16.95;;;1.70;99.90;;;;;;7411243;19;20301;-89
2023/02/10 22:06:04;;;;;;;24.95;16.58;;;1.70;99.90;;;;;;7414167;19;20319;-88
2023/02/10 22:08:32;;;;;;;26.90;16.85;;;1.70;99.90;;;;;;7409339;19;20368;-90
2023/02/10 22:11:07;;;;;;;25.57;17.57;;;1.70;99.90;;;;;;7410535;19;20317;-90
2023/02/10 22:13:36;;;;;;;25.73;16.83;;;1.70;99.90;;;;;;7304122;19;2004287;-89
2023/02/10 22:16:01;;;;;;;24.97;17.63;;;1.70;99.90;;;;;;7409933;19;20308;-89
2023/02/10 22:18:30;;;;;;;23.92;16.63;;;1.60;99.90;;;;;;7409981;19;20461;-88
2023/02/10 22:21:05;;;;;;;25.50;17.75;;;1.60;99.90;;;;;;7411907;19;21257;-89
2023/02/10 22:23:33;;;;;;;27.15;18.55;;;1.50;99.90;;;;;;7307141;19;2004376;-89
2023/02/10 22:26:00;;;;;;;26.40;17.67;;;1.50;99.90;;;;;;7411083;19;20301;-83
2023/02/10 22:28:29;;;;;;;26.00;17.67;;;1.50;99.90;;;;;;7410490;19;20305;-88
2023/02/10 22:30:55;;;;;;;26.65;17.75;;;1.50;99.90;;;;;;7405141;19;20304;-89
2023/02/10 22:33:21;;;;;;;27.07;17.97;;;1.40;99.90;;;;;;7411179;19;20319;-91
2023/02/10 22:35:46;;;;;;;25.63;18.17;;;1.40;99.90;;;;;;7403339;19;20364;-89
2023/02/10 22:38:12;;;;;;;25.27;17.67;;;1.40;99.90;;;;;;7414540;19;20329;-87
2023/02/10 22:40:41;;;;;;;25.88;17.98;;;1.40;99.90;;;;;;7415672;19;20400;-86